sensor_id;sensor_type;location;lat;lon;timestamp;pressure;altitude;pressure_sealevel;temperature;humidity
72414;BME280;60995;52.154;4.498;2022-08-19T00:00:16;101329.72;;;19.11;78.50
72414;BME280;60995;52.154;4.498;2022-08-19T00:02:33;101331.13;;;19.07;78.95
72414;BME280;60995;52.154;4.498;2022-08-19T00:04:50;101326.38;;;19.47;77.64
72414;BME280;60995;52.154;4.498;2022-08-19T00:07:08;101328.53;;;19.75;76.13
72414;BME280;60995;52.154;4.498;2022-08-19T00:09:25;101328.41;;;19.53;77.01
72414;BME280;60995;52.154;4.498;2022-08-19T00:11:43;101331.34;;;19.28;77.65
72414;BME280;60995;52.154;4.498;2022-08-19T00:13:59;101328.72;;;19.58;77.32
72414;BME280;60995;52.154;4.498;2022-08-19T00:16:17;101317.13;;;20.01;75.09
72414;BME280;60995;52.154;4.498;2022-08-19T00:18:36;101325.50;;;19.70;75.37
72414;BME280;60995;52.154;4.498;2022-08-19T00:20:52;101320.75;;;20.16;74.10
72414;BME280;60995;52.154;4.498;2022-08-19T00:23:09;101318.19;;;20.15;73.44
72414;BME280;60995;52.154;4.498;2022-08-19T00:25:26;101328.03;;;19.94;74.12
72414;BME280;60995;52.154;4.498;2022-08-19T00:27:42;101326.91;;;19.89;74.34
72414;BME280;60995;52.154;4.498;2022-08-19T00:29:58;101328.25;;;20.08;74.65
72414;BME280;60995;52.154;4.498;2022-08-19T00:32:16;101327.19;;;20.09;73.42
72414;BME280;60995;52.154;4.498;2022-08-19T00:34:33;101331.97;;;20.15;73.71
72414;BME280;60995;52.154;4.498;2022-08-19T00:36:49;101330.63;;;19.96;74.45
72414;BME280;60995;52.154;4.498;2022-08-19T00:39:06;101326.91;;;20.04;74.05
72414;BME280;60995;52.154;4.498;2022-08-19T00:41:24;101335.66;;;19.92;75.12
72414;BME280;60995;52.154;4.498;2022-08-19T00:43:41;101332.94;;;19.84;75.07
72414;BME280;60995;52.154;4.498;2022-08-19T00:45:57;101335.16;;;19.89;75.41
72414;BME280;60995;52.154;4.498;2022-08-19T00:48:14;101329.16;;;19.62;75.35
72414;BME280;60995;52.154;4.498;2022-08-19T00:50:32;101322.56;;;19.71;75.04
72414;BME280;60995;52.154;4.498;2022-08-19T00:52:51;101322.16;;;19.97;74.67
72414;BME280;60995;52.154;4.498;2022-08-19T00:55:08;101313.06;;;20.12;73.83
72414;BME280;60995;52.154;4.498;2022-08-19T00:57:32;101309.81;;;20.23;73.16
72414;BME280;60995;52.154;4.498;2022-08-19T00:59:55;101319.31;;;20.06;73.38
72414;BME280;60995;52.154;4.498;2022-08-19T01:02:15;101320.28;;;19.75;75.00
72414;BME280;60995;52.154;4.498;2022-08-19T01:04:32;101319.88;;;19.40;76.52
72414;BME280;60995;52.154;4.498;2022-08-19T01:06:48;101337.69;;;19.29;77.06
72414;BME280;60995;52.154;4.498;2022-08-19T01:09:05;101337.88;;;19.27;76.75
72414;BME280;60995;52.154;4.498;2022-08-19T01:11:21;101337.22;;;18.94;77.95
72414;BME280;60995;52.154;4.498;2022-08-19T01:13:38;101344.44;;;18.55;80.19
72414;BME280;60995;52.154;4.498;2022-08-19T01:16:01;101344.00;;;18.35;80.80
72414;BME280;60995;52.154;4.498;2022-08-19T01:18:20;101346.25;;;18.23;81.40
72414;BME280;60995;52.154;4.498;2022-08-19T01:20:39;101337.69;;;18.18;81.86
72414;BME280;60995;52.154;4.498;2022-08-19T01:22:58;101350.00;;;18.39;81.26
72414;BME280;60995;52.154;4.498;2022-08-19T01:25:20;101345.50;;;18.46;81.32
72414;BME280;60995;52.154;4.498;2022-08-19T01:27:43;101348.03;;;18.56;80.32
72414;BME280;60995;52.154;4.498;2022-08-19T01:30:04;101352.97;;;18.68;79.47
72414;BME280;60995;52.154;4.498;2022-08-19T01:32:22;101349.94;;;18.95;78.34
72414;BME280;60995;52.154;4.498;2022-08-19T01:34:42;101348.66;;;19.06;78.51
72414;BME280;60995;52.154;4.498;2022-08-19T01:37:07;101342.50;;;19.50;76.12
72414;BME280;60995;52.154;4.498;2022-08-19T01:39:27;101344.09;;;19.21;76.84
72414;BME280;60995;52.154;4.498;2022-08-19T01:41:44;101342.63;;;18.79;78.80
72414;BME280;60995;52.154;4.498;2022-08-19T01:44:00;101348.88;;;18.56;79.91
72414;BME280;60995;52.154;4.498;2022-08-19T01:46:19;101348.81;;;18.25;81.55
72414;BME280;60995;52.154;4.498;2022-08-19T01:48:39;101344.03;;;18.18;82.19
72414;BME280;60995;52.154;4.498;2022-08-19T01:50:57;101346.63;;;18.20;82.05
72414;BME280;60995;52.154;4.498;2022-08-19T01:53:13;101353.66;;;18.23;82.20
72414;BME280;60995;52.154;4.498;2022-08-19T01:55:30;101346.22;;;18.40;81.88
72414;BME280;60995;52.154;4.498;2022-08-19T01:57:53;101357.91;;;18.33;81.89
72414;BME280;60995;52.154;4.498;2022-08-19T02:00:16;101342.41;;;18.41;81.80
72414;BME280;60995;52.154;4.498;2022-08-19T02:02:34;101342.75;;;18.46;81.55
72414;BME280;60995;52.154;4.498;2022-08-19T02:04:51;101332.38;;;18.64;80.45
72414;BME280;60995;52.154;4.498;2022-08-19T02:07:07;101334.13;;;18.89;79.85
72414;BME280;60995;52.154;4.498;2022-08-19T02:09:24;101328.69;;;19.12;78.65
72414;BME280;60995;52.154;4.498;2022-08-19T02:11:41;101333.34;;;19.34;77.70
72414;BME280;60995;52.154;4.498;2022-08-19T02:13:59;101340.56;;;19.36;77.09
72414;BME280;60995;52.154;4.498;2022-08-19T02:16:18;101340.06;;;19.55;76.83
72414;BME280;60995;52.154;4.498;2022-08-19T02:18:35;101342.09;;;19.61;76.19
72414;BME280;60995;52.154;4.498;2022-08-19T02:20:52;101342.91;;;19.47;77.10
72414;BME280;60995;52.154;4.498;2022-08-19T02:23:09;101339.72;;;19.58;76.90
72414;BME280;60995;52.154;4.498;2022-08-19T02:25:27;101333.09;;;19.67;76.50
72414;BME280;60995;52.154;4.498;2022-08-19T02:27:44;101334.22;;;19.58;77.06
72414;BME280;60995;52.154;4.498;2022-08-19T02:30:00;101325.28;;;19.33;78.11
72414;BME280;60995;52.154;4.498;2022-08-19T02:32:20;101325.81;;;19.05;79.12
72414;BME280;60995;52.154;4.498;2022-08-19T02:34:36;101331.38;;;18.89;80.91
72414;BME280;60995;52.154;4.498;2022-08-19T02:36:52;101333.06;;;18.98;80.28
72414;BME280;60995;52.154;4.498;2022-08-19T02:39:09;101337.63;;;19.14;80.21
72414;BME280;60995;52.154;4.498;2022-08-19T02:41:29;101335.28;;;19.03;80.40
72414;BME280;60995;52.154;4.498;2022-08-19T02:43:48;101334.25;;;19.04;80.60
72414;BME280;60995;52.154;4.498;2022-08-19T02:46:19;101335.16;;;18.88;81.33
72414;BME280;60995;52.154;4.498;2022-08-19T02:48:42;101317.38;;;18.75;82.52
72414;BME280;60995;52.154;4.498;2022-08-19T02:50:59;101320.25;;;18.82;82.33
72414;BME280;60995;52.154;4.498;2022-08-19T02:53:15;101322.63;;;18.85;82.20
72414;BME280;60995;52.154;4.498;2022-08-19T02:55:32;101315.44;;;18.84;82.47
72414;BME280;60995;52.154;4.498;2022-08-19T02:57:48;101306.00;;;18.78;82.86
72414;BME280;60995;52.154;4.498;2022-08-19T03:00:06;101305.25;;;18.61;83.34
72414;BME280;60995;52.154;4.498;2022-08-19T03:02:24;101300.25;;;18.65;83.44
72414;BME280;60995;52.154;4.498;2022-08-19T03:04:40;101298.06;;;18.83;82.41
72414;BME280;60995;52.154;4.498;2022-08-19T03:06:57;101293.06;;;18.87;82.21
72414;BME280;60995;52.154;4.498;2022-08-19T03:09:14;101297.19;;;18.91;82.00
72414;BME280;60995;52.154;4.498;2022-08-19T03:11:33;101296.91;;;18.78;83.03
72414;BME280;60995;52.154;4.498;2022-08-19T03:13:49;101290.28;;;18.95;82.14
72414;BME280;60995;52.154;4.498;2022-08-19T03:16:06;101296.53;;;19.12;81.46
72414;BME280;60995;52.154;4.498;2022-08-19T03:18:22;101292.88;;;18.89;82.08
72414;BME280;60995;52.154;4.498;2022-08-19T03:20:47;101293.84;;;18.73;83.45
72414;BME280;60995;52.154;4.498;2022-08-19T03:23:06;101290.84;;;18.82;83.25
72414;BME280;60995;52.154;4.498;2022-08-19T03:25:22;101299.94;;;18.91;83.05
72414;BME280;60995;52.154;4.498;2022-08-19T03:27:38;101300.63;;;18.93;82.82
72414;BME280;60995;52.154;4.498;2022-08-19T03:29:55;101300.03;;;18.75;83.09
72414;BME280;60995;52.154;4.498;2022-08-19T03:32:11;101303.44;;;18.77;83.38
72414;BME280;60995;52.154;4.498;2022-08-19T03:34:30;101292.09;;;19.11;82.04
72414;BME280;60995;52.154;4.498;2022-08-19T03:36:48;101291.19;;;19.19;81.74
72414;BME280;60995;52.154;4.498;2022-08-19T03:39:04;101293.31;;;19.09;81.83
72414;BME280;60995;52.154;4.498;2022-08-19T03:41:24;101289.47;;;19.18;81.35
72414;BME280;60995;52.154;4.498;2022-08-19T03:43:43;101291.09;;;19.04;82.13
72414;BME280;60995;52.154;4.498;2022-08-19T03:46:08;101287.31;;;19.28;81.06
72414;BME280;60995;52.154;4.498;2022-08-19T03:48:27;101294.06;;;19.26;80.92
72414;BME280;60995;52.154;4.498;2022-08-19T03:50:44;101284.38;;;19.07;81.53
72414;BME280;60995;52.154;4.498;2022-08-19T03:53:00;101294.09;;;18.94;82.40
72414;BME280;60995;52.154;4.498;2022-08-19T03:55:17;101294.16;;;18.78;82.93
72414;BME280;60995;52.154;4.498;2022-08-19T03:57:34;101287.25;;;19.13;81.59
72414;BME280;60995;52.154;4.498;2022-08-19T03:59:50;101292.88;;;19.20;80.77
72414;BME280;60995;52.154;4.498;2022-08-19T04:02:10;101298.03;;;19.23;79.74
72414;BME280;60995;52.154;4.498;2022-08-19T04:04:28;101303.75;;;19.13;80.85
72414;BME280;60995;52.154;4.498;2022-08-19T04:06:44;101302.88;;;18.90;82.05
72414;BME280;60995;52.154;4.498;2022-08-19T04:09:05;101302.03;;;18.89;82.43
72414;BME280;60995;52.154;4.498;2022-08-19T04:11:37;101301.06;;;19.05;81.40
72414;BME280;60995;52.154;4.498;2022-08-19T04:13:57;101303.31;;;18.70;82.77
72414;BME280;60995;52.154;4.498;2022-08-19T04:16:15;101301.06;;;18.74;83.46
72414;BME280;60995;52.154;4.498;2022-08-19T04:18:33;101309.56;;;18.56;84.13
72414;BME280;60995;52.154;4.498;2022-08-19T04:20:49;101319.06;;;18.45;85.13
72414;BME280;60995;52.154;4.498;2022-08-19T04:23:07;101317.50;;;18.50;85.13
72414;BME280;60995;52.154;4.498;2022-08-19T04:25:24;101313.53;;;18.53;84.86
72414;BME280;60995;52.154;4.498;2022-08-19T04:27:40;101307.81;;;18.63;84.53
72414;BME280;60995;52.154;4.498;2022-08-19T04:29:59;101304.06;;;18.87;83.42
72414;BME280;60995;52.154;4.498;2022-08-19T04:32:15;101310.22;;;18.97;83.30
72414;BME280;60995;52.154;4.498;2022-08-19T04:34:31;101314.38;;;18.93;83.97
72414;BME280;60995;52.154;4.498;2022-08-19T04:36:48;101313.16;;;18.96;83.88
72414;BME280;60995;52.154;4.498;2022-08-19T04:39:10;101316.84;;;19.11;83.39
72414;BME280;60995;52.154;4.498;2022-08-19T04:41:29;101316.34;;;19.08;83.47
72414;BME280;60995;52.154;4.498;2022-08-19T04:44:04;101310.75;;;19.24;82.55
72414;BME280;60995;52.154;4.498;2022-08-19T04:46:21;101312.09;;;19.28;83.14
72414;BME280;60995;52.154;4.498;2022-08-19T04:48:39;101310.00;;;19.30;82.43
72414;BME280;60995;52.154;4.498;2022-08-19T04:50:57;101305.47;;;19.38;82.69
72414;BME280;60995;52.154;4.498;2022-08-19T04:53:17;101307.53;;;19.36;82.17
72414;BME280;60995;52.154;4.498;2022-08-19T04:55:33;101312.69;;;19.39;83.00
72414;BME280;60995;52.154;4.498;2022-08-19T04:57:52;101306.59;;;19.28;83.29
72414;BME280;60995;52.154;4.498;2022-08-19T05:00:12;101315.59;;;19.37;82.94
72414;BME280;60995;52.154;4.498;2022-08-19T05:02:28;101315.38;;;19.47;82.83
72414;BME280;60995;52.154;4.498;2022-08-19T05:04:47;101317.31;;;19.61;81.93
72414;BME280;60995;52.154;4.498;2022-08-19T05:07:05;101314.22;;;19.41;82.91
72414;BME280;60995;52.154;4.498;2022-08-19T05:09:30;101313.34;;;19.79;81.57
72414;BME280;60995;52.154;4.498;2022-08-19T05:11:47;101313.91;;;19.97;80.91
72414;BME280;60995;52.154;4.498;2022-08-19T05:14:08;101317.44;;;20.21;79.25
72414;BME280;60995;52.154;4.498;2022-08-19T05:16:28;101323.44;;;20.25;79.64
72414;BME280;60995;52.154;4.498;2022-08-19T05:18:47;101324.84;;;20.36;79.04
72414;BME280;60995;52.154;4.498;2022-08-19T05:21:28;101325.59;;;20.29;78.75
72414;BME280;60995;52.154;4.498;2022-08-19T05:24:05;101329.94;;;20.09;80.24
72414;BME280;60995;52.154;4.498;2022-08-19T05:26:25;101326.91;;;20.04;80.47
72414;BME280;60995;52.154;4.498;2022-08-19T05:28:49;101309.53;;;20.33;79.62
72414;BME280;60995;52.154;4.498;2022-08-19T05:31:13;101310.88;;;20.22;79.63
72414;BME280;60995;52.154;4.498;2022-08-19T05:33:35;101316.69;;;20.27;79.79
72414;BME280;60995;52.154;4.498;2022-08-19T05:35:59;101308.78;;;20.24;80.32
72414;BME280;60995;52.154;4.498;2022-08-19T05:38:18;101314.78;;;20.43;79.49
72414;BME280;60995;52.154;4.498;2022-08-19T05:40:37;101320.72;;;20.76;77.80
72414;BME280;60995;52.154;4.498;2022-08-19T05:43:04;101314.66;;;20.81;77.33
72414;BME280;60995;52.154;4.498;2022-08-19T05:45:21;101312.56;;;21.05;76.60
72414;BME280;60995;52.154;4.498;2022-08-19T05:47:38;101297.19;;;20.95;77.21
72414;BME280;60995;52.154;4.498;2022-08-19T05:49:54;101295.28;;;20.96;77.46
72414;BME280;60995;52.154;4.498;2022-08-19T05:52:15;101304.13;;;21.28;75.82
72414;BME280;60995;52.154;4.498;2022-08-19T05:54:32;101304.03;;;21.43;75.16
72414;BME280;60995;52.154;4.498;2022-08-19T05:56:51;101297.59;;;21.36;76.20
72414;BME280;60995;52.154;4.498;2022-08-19T05:59:11;101303.59;;;21.89;73.85
72414;BME280;60995;52.154;4.498;2022-08-19T06:01:27;101307.78;;;21.78;74.36
72414;BME280;60995;52.154;4.498;2022-08-19T06:03:44;101312.84;;;21.53;75.30
72414;BME280;60995;52.154;4.498;2022-08-19T06:06:01;101322.66;;;22.41;71.54
72414;BME280;60995;52.154;4.498;2022-08-19T06:08:19;101321.75;;;22.34;71.85
72414;BME280;60995;52.154;4.498;2022-08-19T06:10:35;101315.88;;;22.50;71.23
72414;BME280;60995;52.154;4.498;2022-08-19T06:12:53;101312.69;;;22.46;71.38
72414;BME280;60995;52.154;4.498;2022-08-19T06:15:13;101308.00;;;22.47;70.82
72414;BME280;60995;52.154;4.498;2022-08-19T06:17:30;101308.06;;;23.16;69.18
72414;BME280;60995;52.154;4.498;2022-08-19T06:19:47;101309.41;;;23.53;67.69
72414;BME280;60995;52.154;4.498;2022-08-19T06:22:03;101320.03;;;23.43;68.07
72414;BME280;60995;52.154;4.498;2022-08-19T06:24:23;101317.25;;;24.10;65.28
72414;BME280;60995;52.154;4.498;2022-08-19T06:26:43;101309.94;;;24.94;63.00
72414;BME280;60995;52.154;4.498;2022-08-19T06:29:02;101308.09;;;25.20;62.33
72414;BME280;60995;52.154;4.498;2022-08-19T06:31:24;101305.03;;;25.61;60.86
72414;BME280;60995;52.154;4.498;2022-08-19T06:33:44;101311.50;;;26.61;56.94
72414;BME280;60995;52.154;4.498;2022-08-19T06:36:00;101308.25;;;26.82;56.15
72414;BME280;60995;52.154;4.498;2022-08-19T06:38:17;101307.53;;;27.60;54.51
72414;BME280;60995;52.154;4.498;2022-08-19T06:40:33;101316.66;;;26.94;56.13
72414;BME280;60995;52.154;4.498;2022-08-19T06:42:49;101315.47;;;27.75;54.22
72414;BME280;60995;52.154;4.498;2022-08-19T06:45:06;101311.13;;;28.02;52.65
72414;BME280;60995;52.154;4.498;2022-08-19T06:47:24;101305.88;;;28.82;50.57
72414;BME280;60995;52.154;4.498;2022-08-19T06:49:41;101309.91;;;30.17;47.64
72414;BME280;60995;52.154;4.498;2022-08-19T06:51:58;101298.69;;;30.57;46.37
72414;BME280;60995;52.154;4.498;2022-08-19T06:54:17;101303.47;;;32.03;43.07
72414;BME280;60995;52.154;4.498;2022-08-19T06:56:35;101302.38;;;32.52;41.89
72414;BME280;60995;52.154;4.498;2022-08-19T06:58:52;101301.66;;;31.81;42.47
72414;BME280;60995;52.154;4.498;2022-08-19T07:01:09;101296.16;;;33.44;39.16
72414;BME280;60995;52.154;4.498;2022-08-19T07:03:25;101299.81;;;33.86;38.40
72414;BME280;60995;52.154;4.498;2022-08-19T07:05:42;101302.25;;;34.24;37.93
72414;BME280;60995;52.154;4.498;2022-08-19T07:07:59;101297.19;;;33.02;40.50
72414;BME280;60995;52.154;4.498;2022-08-19T07:10:15;101297.84;;;33.35;39.83
72414;BME280;60995;52.154;4.498;2022-08-19T07:12:32;101300.25;;;34.45;37.91
72414;BME280;60995;52.154;4.498;2022-08-19T07:14:49;101302.06;;;33.43;39.36
72414;BME280;60995;52.154;4.498;2022-08-19T07:17:08;101306.03;;;31.34;43.28
72414;BME280;60995;52.154;4.498;2022-08-19T07:19:28;101310.78;;;30.01;47.01
72414;BME280;60995;52.154;4.498;2022-08-19T07:21:47;101320.34;;;28.27;51.34
72414;BME280;60995;52.154;4.498;2022-08-19T07:24:05;101321.53;;;27.95;53.39
72414;BME280;60995;52.154;4.498;2022-08-19T07:26:25;101318.81;;;29.46;49.23
72414;BME280;60995;52.154;4.498;2022-08-19T07:28:43;101321.88;;;27.99;52.54
72414;BME280;60995;52.154;4.498;2022-08-19T07:31:00;101329.63;;;27.31;54.97
72414;BME280;60995;52.154;4.498;2022-08-19T07:33:17;101324.50;;;27.58;54.28
72414;BME280;60995;52.154;4.498;2022-08-19T07:35:42;101318.97;;;28.41;52.14
72414;BME280;60995;52.154;4.498;2022-08-19T07:38:05;101322.25;;;28.91;50.60
72414;BME280;60995;52.154;4.498;2022-08-19T07:40:23;101321.13;;;29.49;49.37
72414;BME280;60995;52.154;4.498;2022-08-19T07:42:40;101316.66;;;29.19;49.46
72414;BME280;60995;52.154;4.498;2022-08-19T07:44:58;101306.25;;;28.33;51.90
72414;BME280;60995;52.154;4.498;2022-08-19T07:47:15;101326.25;;;28.18;52.17
72414;BME280;60995;52.154;4.498;2022-08-19T07:49:33;101322.94;;;26.71;56.48
72414;BME280;60995;52.154;4.498;2022-08-19T07:51:52;101326.56;;;26.16;58.34
72414;BME280;60995;52.154;4.498;2022-08-19T07:54:12;101328.44;;;25.07;60.70
72414;BME280;60995;52.154;4.498;2022-08-19T07:56:28;101325.34;;;24.90;61.34
72414;BME280;60995;52.154;4.498;2022-08-19T07:58:46;101320.38;;;25.38;59.88
72414;BME280;60995;52.154;4.498;2022-08-19T08:01:06;101322.03;;;26.40;57.42
72414;BME280;60995;52.154;4.498;2022-08-19T08:03:27;101316.03;;;27.88;52.12
72414;BME280;60995;52.154;4.498;2022-08-19T08:06:03;101335.09;;;27.80;52.18
72414;BME280;60995;52.154;4.498;2022-08-19T08:08:38;101338.34;;;27.22;54.18
72414;BME280;60995;52.154;4.498;2022-08-19T08:11:13;101346.13;;;27.02;54.86
72414;BME280;60995;52.154;4.498;2022-08-19T08:13:31;101343.28;;;27.20;53.99
72414;BME280;60995;52.154;4.498;2022-08-19T08:15:50;101339.84;;;27.06;54.69
72414;BME280;60995;52.154;4.498;2022-08-19T08:18:07;101349.06;;;26.70;55.41
72414;BME280;60995;52.154;4.498;2022-08-19T08:20:24;101345.53;;;26.63;54.50
72414;BME280;60995;52.154;4.498;2022-08-19T08:22:45;101356.56;;;26.69;54.39
72414;BME280;60995;52.154;4.498;2022-08-19T08:25:23;101354.00;;;28.61;49.42
72414;BME280;60995;52.154;4.498;2022-08-19T08:27:41;101350.25;;;28.67;49.43
72414;BME280;60995;52.154;4.498;2022-08-19T08:30:26;101362.28;;;27.42;51.88
72414;BME280;60995;52.154;4.498;2022-08-19T08:32:51;101350.94;;;26.39;55.47
72414;BME280;60995;52.154;4.498;2022-08-19T08:35:21;101360.75;;;27.28;53.27
72414;BME280;60995;52.154;4.498;2022-08-19T08:37:47;101361.19;;;28.33;50.49
72414;BME280;60995;52.154;4.498;2022-08-19T08:40:18;101355.84;;;27.96;51.31
72414;BME280;60995;52.154;4.498;2022-08-19T08:45:49;101358.31;;;27.50;53.27
72414;BME280;60995;52.154;4.498;2022-08-19T08:48:27;101364.13;;;27.30;52.81
72414;BME280;60995;52.154;4.498;2022-08-19T08:51:03;101364.78;;;27.32;53.45
72414;BME280;60995;52.154;4.498;2022-08-19T08:53:26;101361.00;;;26.77;55.66
72414;BME280;60995;52.154;4.498;2022-08-19T08:55:55;101358.06;;;26.72;55.59
72414;BME280;60995;52.154;4.498;2022-08-19T09:01:10;101362.16;;;30.68;45.23
72414;BME280;60995;52.154;4.498;2022-08-19T09:03:28;101357.22;;;30.19;46.18
72414;BME280;60995;52.154;4.498;2022-08-19T09:11:35;101371.56;;;26.06;57.08
72414;BME280;60995;52.154;4.498;2022-08-19T09:17:11;101378.19;;;25.09;60.80
72414;BME280;60995;52.154;4.498;2022-08-19T09:19:35;101370.84;;;25.28;60.24
72414;BME280;60995;52.154;4.498;2022-08-19T09:22:11;101376.63;;;25.90;58.81
72414;BME280;60995;52.154;4.498;2022-08-19T09:24:28;101373.47;;;26.74;55.47
72414;BME280;60995;52.154;4.498;2022-08-19T09:26:45;101382.31;;;28.05;51.63
72414;BME280;60995;52.154;4.498;2022-08-19T09:29:03;101374.66;;;29.87;46.14
72414;BME280;60995;52.154;4.498;2022-08-19T09:31:25;101379.31;;;30.55;44.67
72414;BME280;60995;52.154;4.498;2022-08-19T09:33:43;101380.75;;;31.24;43.35
72414;BME280;60995;52.154;4.498;2022-08-19T09:36:05;101377.38;;;32.52;40.56
72414;BME280;60995;52.154;4.498;2022-08-19T09:38:23;101382.00;;;31.98;41.10
72414;BME280;60995;52.154;4.498;2022-08-19T09:40:40;101384.09;;;31.75;42.26
72414;BME280;60995;52.154;4.498;2022-08-19T09:42:56;101391.97;;;30.40;44.90
72414;BME280;60995;52.154;4.498;2022-08-19T09:45:20;101387.69;;;28.95;48.21
72414;BME280;60995;52.154;4.498;2022-08-19T09:47:38;101385.69;;;27.53;53.05
72414;BME280;60995;52.154;4.498;2022-08-19T09:49:55;101393.66;;;27.92;51.74
72414;BME280;60995;52.154;4.498;2022-08-19T09:52:12;101396.13;;;28.23;51.01
72414;BME280;60995;52.154;4.498;2022-08-19T09:54:32;101391.41;;;28.36;50.43
72414;BME280;60995;52.154;4.498;2022-08-19T09:56:49;101394.69;;;28.09;51.11
72414;BME280;60995;52.154;4.498;2022-08-19T09:59:05;101396.72;;;27.29;52.97
72414;BME280;60995;52.154;4.498;2022-08-19T10:01:26;101395.25;;;27.45;52.53
72414;BME280;60995;52.154;4.498;2022-08-19T10:03:48;101389.69;;;27.57;52.47
72414;BME280;60995;52.154;4.498;2022-08-19T10:06:12;101389.03;;;27.85;51.97
72414;BME280;60995;52.154;4.498;2022-08-19T10:08:34;101382.53;;;29.44;48.25
72414;BME280;60995;52.154;4.498;2022-08-19T10:10:55;101389.22;;;30.62;45.31
72414;BME280;60995;52.154;4.498;2022-08-19T10:13:15;101400.25;;;31.36;43.19
72414;BME280;60995;52.154;4.498;2022-08-19T10:15:37;101401.72;;;31.71;42.07
72414;BME280;60995;52.154;4.498;2022-08-19T10:17:56;101393.03;;;30.95;43.47
72414;BME280;60995;52.154;4.498;2022-08-19T10:20:14;101383.25;;;30.98;43.01
72414;BME280;60995;52.154;4.498;2022-08-19T10:22:30;101387.84;;;30.09;44.77
72414;BME280;60995;52.154;4.498;2022-08-19T10:24:52;101385.53;;;29.26;46.69
72414;BME280;60995;52.154;4.498;2022-08-19T10:27:10;101395.38;;;28.64;47.67
72414;BME280;60995;52.154;4.498;2022-08-19T10:29:27;101395.56;;;27.79;50.06
72414;BME280;60995;52.154;4.498;2022-08-19T10:31:44;101394.78;;;28.02;50.12
72414;BME280;60995;52.154;4.498;2022-08-19T10:34:03;101391.38;;;27.46;51.19
72414;BME280;60995;52.154;4.498;2022-08-19T10:36:22;101395.16;;;27.64;50.59
72414;BME280;60995;52.154;4.498;2022-08-19T10:39:01;101393.97;;;28.02;50.53
72414;BME280;60995;52.154;4.498;2022-08-19T10:41:23;101394.28;;;29.75;46.76
72414;BME280;60995;52.154;4.498;2022-08-19T10:43:43;101390.41;;;29.47;47.09
72414;BME280;60995;52.154;4.498;2022-08-19T10:46:02;101392.59;;;28.52;49.28
72414;BME280;60995;52.154;4.498;2022-08-19T10:48:19;101387.91;;;26.83;53.67
72414;BME280;60995;52.154;4.498;2022-08-19T10:50:36;101394.09;;;27.04;53.33
72414;BME280;60995;52.154;4.498;2022-08-19T10:53:11;101389.97;;;27.37;52.62
72414;BME280;60995;52.154;4.498;2022-08-19T10:55:38;101393.38;;;27.69;52.00
72414;BME280;60995;52.154;4.498;2022-08-19T10:58:17;101395.09;;;27.70;52.03
72414;BME280;60995;52.154;4.498;2022-08-19T11:00:38;101383.81;;;27.77;52.59
72414;BME280;60995;52.154;4.498;2022-08-19T11:02:54;101395.00;;;27.47;54.07
72414;BME280;60995;52.154;4.498;2022-08-19T11:05:12;101391.16;;;27.60;53.08
72414;BME280;60995;52.154;4.498;2022-08-19T11:07:33;101391.34;;;29.36;48.81
72414;BME280;60995;52.154;4.498;2022-08-19T11:09:49;101384.22;;;30.64;45.77
72414;BME280;60995;52.154;4.498;2022-08-19T11:12:07;101386.50;;;30.90;45.33
72414;BME280;60995;52.154;4.498;2022-08-19T11:14:25;101383.44;;;30.69;44.96
72414;BME280;60995;52.154;4.498;2022-08-19T11:16:42;101390.47;;;30.15;46.11
72414;BME280;60995;52.154;4.498;2022-08-19T11:18:59;101392.78;;;30.18;45.70
72414;BME280;60995;52.154;4.498;2022-08-19T11:21:18;101395.25;;;29.52;47.36
72414;BME280;60995;52.154;4.498;2022-08-19T11:23:40;101395.50;;;27.98;51.47
72414;BME280;60995;52.154;4.498;2022-08-19T11:25:56;101399.91;;;28.41;50.82
72414;BME280;60995;52.154;4.498;2022-08-19T11:28:15;101395.56;;;27.79;52.06
72414;BME280;60995;52.154;4.498;2022-08-19T11:30:32;101393.38;;;27.69;52.42
72414;BME280;60995;52.154;4.498;2022-08-19T11:32:49;101400.16;;;27.62;53.18
72414;BME280;60995;52.154;4.498;2022-08-19T11:35:06;101399.88;;;28.05;51.61
72414;BME280;60995;52.154;4.498;2022-08-19T11:37:22;101390.75;;;27.86;52.30
72414;BME280;60995;52.154;4.498;2022-08-19T11:39:39;101396.97;;;28.48;50.34
72414;BME280;60995;52.154;4.498;2022-08-19T11:41:57;101397.19;;;27.99;51.43
72414;BME280;60995;52.154;4.498;2022-08-19T11:44:18;101395.88;;;28.61;50.18
72414;BME280;60995;52.154;4.498;2022-08-19T11:46:36;101402.91;;;28.75;49.49
72414;BME280;60995;52.154;4.498;2022-08-19T11:48:53;101396.72;;;28.49;49.88
72414;BME280;60995;52.154;4.498;2022-08-19T11:51:14;101400.50;;;28.43;50.35
72414;BME280;60995;52.154;4.498;2022-08-19T11:53:35;101403.88;;;27.98;51.36
72414;BME280;60995;52.154;4.498;2022-08-19T11:55:53;101399.03;;;28.52;50.14
72414;BME280;60995;52.154;4.498;2022-08-19T11:58:15;101397.66;;;28.91;49.66
72414;BME280;60995;52.154;4.498;2022-08-19T12:00:34;101401.56;;;29.18;49.15
72414;BME280;60995;52.154;4.498;2022-08-19T12:02:52;101396.66;;;30.17;46.76
72414;BME280;60995;52.154;4.498;2022-08-19T12:05:11;101396.38;;;30.36;46.36
72414;BME280;60995;52.154;4.498;2022-08-19T12:07:27;101397.16;;;30.48;45.60
72414;BME280;60995;52.154;4.498;2022-08-19T12:09:48;101396.34;;;29.97;46.39
72414;BME280;60995;52.154;4.498;2022-08-19T12:12:05;101401.56;;;29.18;47.75
72414;BME280;60995;52.154;4.498;2022-08-19T12:14:23;101407.88;;;28.61;50.09
72414;BME280;60995;52.154;4.498;2022-08-19T12:16:44;101407.00;;;28.96;49.26
72414;BME280;60995;52.154;4.498;2022-08-19T12:19:04;101397.28;;;28.99;49.27
72414;BME280;60995;52.154;4.498;2022-08-19T12:21:25;101395.50;;;30.13;47.00
72414;BME280;60995;52.154;4.498;2022-08-19T12:23:44;101389.59;;;30.49;45.82